Time;durP1;ratioP1;P1;durP2;ratioP2;P2;SDS_P1;SDS_P2;PMS_P1;PMS_P2;Temp;Humidity;BMP_temperature;BMP_pressure;BME280_temperature;BME280_humidity;BME280_pressure;Samples;Min_cycle;Max_cycle;Signal;HPM_P1;HPM_P2
2023/02/23 00:01:40;;;;;;;20.63;15.07;;;11.70;99.90;;;;;;5128038;27;20781;-72
2023/02/23 00:04:06;;;;;;;19.57;15.80;;;11.70;99.90;;;;;;5138393;27;20397;-72
2023/02/23 00:06:36;;;;;;;21.23;16.40;;;11.70;99.90;;;;;;5112095;28;20498;-72
2023/02/23 00:09:14;;;;;;;19.97;15.60;;;11.70;99.90;;;;;;5112831;28;20426;-72
2023/02/23 00:11:39;;;;;;;25.40;16.93;;;11.60;99.90;;;;;;5113427;28;20402;-72
2023/02/23 00:14:07;;;;;;;23.30;18.00;;;11.60;99.90;;;;;;5111823;28;20431;-72
2023/02/23 00:16:32;;;;;;;22.67;16.80;;;11.60;99.90;;;;;;5113319;28;20233;-72
2023/02/23 00:18:59;;;;;;;25.37;19.40;;;11.60;99.90;;;;;;5122023;27;20901;-72
2023/02/23 00:21:28;;;;;;;25.93;19.83;;;11.60;99.90;;;;;;5133664;27;20161;-72
2023/02/23 00:23:56;;;;;;;23.97;17.10;;;11.50;99.90;;;;;;5133694;27;20406;-72
2023/02/23 00:26:24;;;;;;;21.97;18.03;;;11.50;99.90;;;;;;5133727;27;20429;-72
2023/02/23 00:28:52;;;;;;;24.67;17.33;;;11.50;99.90;;;;;;5133048;27;20413;-72
2023/02/23 00:31:24;;;;;;;26.87;18.37;;;11.50;99.90;;;;;;5130813;27;20405;-73
2023/02/23 00:34:00;;;;;;;25.53;17.50;;;11.50;99.90;;;;;;5113708;27;20433;-73
2023/02/23 00:36:29;;;;;;;28.33;18.90;;;11.40;99.90;;;;;;5129155;27;20988;-73
2023/02/23 00:38:57;;;;;;;18.90;16.83;;;11.40;99.90;;;;;;5133115;27;20432;-72
2023/02/23 00:41:29;;;;;;;24.20;17.10;;;11.40;99.90;;;;;;5133260;27;20412;-72
2023/02/23 00:43:59;;;;;;;22.60;16.10;;;11.40;99.90;;;;;;5133406;27;20405;-71
2023/02/23 00:46:27;;;;;;;24.60;18.30;;;11.50;99.90;;;;;;5133360;27;20408;-72
2023/02/23 00:48:54;;;;;;;24.20;17.80;;;11.50;99.90;;;;;;5131986;27;20520;-72
2023/02/23 00:51:21;;;;;;;24.27;17.30;;;11.50;99.90;;;;;;5131963;27;20397;-72
2023/02/23 00:53:48;;;;;;;23.27;16.20;;;11.50;99.90;;;;;;5132975;27;20402;-72
2023/02/23 00:56:14;;;;;;;20.97;18.10;;;11.40;99.90;;;;;;5132884;27;20413;-72
2023/02/23 00:58:41;;;;;;;23.53;18.20;;;11.40;99.90;;;;;;5132664;27;20410;-73
2023/02/23 01:01:09;;;;;;;22.27;16.33;;;11.40;99.90;;;;;;5132981;27;20730;-72
2023/02/23 01:03:36;;;;;;;28.33;18.00;;;11.50;99.90;;;;;;5132576;27;20744;-71
2023/02/23 01:06:05;;;;;;;21.83;17.73;;;11.50;99.90;;;;;;5133145;27;20458;-71
2023/02/23 01:08:33;;;;;;;24.20;18.87;;;11.50;99.90;;;;;;5131657;27;20826;-71
2023/02/23 01:10:58;;;;;;;27.37;18.40;;;11.50;99.90;;;;;;5131546;27;20410;-71
2023/02/23 01:13:26;;;;;;;23.83;18.23;;;11.50;99.90;;;;;;5143177;27;20425;-71
2023/02/23 01:15:52;;;;;;;23.00;17.00;;;11.50;99.90;;;;;;5137580;27;20411;-72
2023/02/23 01:18:19;;;;;;;23.10;17.90;;;11.50;99.90;;;;;;5118114;27;20418;-72
2023/02/23 01:20:45;;;;;;;24.23;18.53;;;11.50;99.90;;;;;;5112170;28;20249;-71
2023/02/23 01:23:14;;;;;;;22.10;17.13;;;11.50;99.90;;;;;;5112290;28;20407;-71
2023/02/23 01:25:42;;;;;;;26.90;17.30;;;11.50;99.90;;;;;;5112027;28;20405;-72
2023/02/23 01:28:09;;;;;;;28.33;17.93;;;11.50;99.90;;;;;;5111941;28;20406;-71
2023/02/23 01:30:35;;;;;;;25.33;18.50;;;11.50;99.90;;;;;;5112223;28;20463;-71
2023/02/23 01:33:01;;;;;;;23.67;17.97;;;11.50;99.90;;;;;;5112256;28;20434;-71
2023/02/23 01:35:27;;;;;;;24.80;18.53;;;11.50;99.90;;;;;;5112054;28;20395;-71
2023/02/23 01:37:53;;;;;;;26.33;18.30;;;11.50;99.90;;;;;;5111703;28;20168;-71
2023/02/23 01:40:27;;;;;;;27.33;19.70;;;11.50;99.90;;;;;;5112048;28;20451;-72
2023/02/23 01:43:12;;;;;;;26.60;16.80;;;11.50;99.90;;;;;;5112155;28;20161;-71
2023/02/23 01:45:39;;;;;;;27.83;19.70;;;11.50;99.90;;;;;;5112155;28;20829;-71
2023/02/23 01:48:05;;;;;;;24.60;18.50;;;11.30;99.90;;;;;;5125563;27;20410;-71
2023/02/23 01:50:39;;;;;;;25.43;18.70;;;11.40;99.90;;;;;;5131352;27;20413;-71
2023/02/23 01:53:05;;;;;;;24.27;19.40;;;11.40;99.90;;;;;;5131379;28;20177;-71
2023/02/23 01:55:31;;;;;;;22.53;17.87;;;11.40;99.90;;;;;;5132498;28;20765;-71
2023/02/23 01:58:04;;;;;;;25.93;19.90;;;11.40;99.90;;;;;;5132349;28;20406;-71
2023/02/23 02:00:31;;;;;;;24.30;19.90;;;11.40;99.90;;;;;;5132195;27;20196;-72
2023/02/23 02:03:01;;;;;;;28.53;20.10;;;11.40;99.90;;;;;;5132566;27;20487;-72
2023/02/23 02:05:28;;;;;;;24.83;19.60;;;11.40;99.90;;;;;;5132328;27;20555;-71
2023/02/23 02:07:57;;;;;;;24.63;18.23;;;11.40;99.90;;;;;;5132410;27;20409;-71
2023/02/23 02:10:45;;;;;;;24.47;16.57;;;11.40;99.90;;;;;;5132158;27;20428;-71
2023/02/23 02:13:14;;;;;;;26.43;19.77;;;11.40;99.90;;;;;;5132297;27;20508;-71
2023/02/23 02:15:57;;;;;;;25.00;18.60;;;11.40;99.90;;;;;;5133837;27;20397;-71
2023/02/23 02:18:41;;;;;;;25.33;19.17;;;11.40;99.90;;;;;;5114187;28;20409;-71
2023/02/23 02:21:28;;;;;;;28.07;20.07;;;11.40;99.90;;;;;;5149978;27;20426;-71
2023/02/23 02:24:12;;;;;;;24.13;18.40;;;11.40;99.90;;;;;;5134853;27;20501;-71
2023/02/23 02:26:51;;;;;;;25.47;18.87;;;11.40;99.90;;;;;;5136046;27;20390;-71
2023/02/23 02:29:51;;;;;;;26.57;18.90;;;11.40;99.90;;;;;;5135764;27;20428;-71
2023/02/23 02:32:57;;;;;;;33.30;20.20;;;11.40;99.90;;;;;;5135922;27;20900;-71
2023/02/23 02:35:53;;;;;;;34.97;21.13;;;11.40;99.90;;;;;;5135833;27;20947;-71
2023/02/23 02:38:49;;;;;;;33.57;22.90;;;11.40;99.90;;;;;;5135525;27;20394;-71
2023/02/23 02:41:25;;;;;;;38.27;24.27;;;11.40;99.90;;;;;;5099400;27;20417;-71
2023/02/23 02:44:16;;;;;;;38.17;24.37;;;11.40;99.90;;;;;;5135751;27;20386;-72
2023/02/23 02:46:47;;;;;;;31.13;21.17;;;11.30;99.90;;;;;;5135727;27;20401;-72
2023/02/23 02:49:16;;;;;;;30.83;22.07;;;11.30;99.90;;;;;;5135391;27;20417;-73
2023/02/23 02:52:15;;;;;;;27.47;20.50;;;11.30;99.90;;;;;;5135671;27;20401;-71
2023/02/23 02:54:52;;;;;;;28.37;20.60;;;11.40;99.90;;;;;;5114814;28;20410;-71
2023/02/23 02:57:23;;;;;;;31.00;20.63;;;11.40;99.90;;;;;;5114567;28;20487;-72
2023/02/23 04:19:53;;;;;;;43.27;22.80;;;11.00;99.90;;;;;;5113582;28;20811;-72
2023/02/23 04:22:20;;;;;;;33.63;22.20;;;11.00;99.90;;;;;;5113660;28;20832;-72
2023/02/23 04:24:46;;;;;;;43.47;24.57;;;11.00;99.90;;;;;;5113772;28;20427;-72
2023/02/23 04:27:12;;;;;;;32.40;22.90;;;10.90;99.90;;;;;;5113537;28;20426;-72
2023/02/23 04:29:38;;;;;;;31.83;20.87;;;10.90;99.90;;;;;;5113189;28;20517;-72
2023/02/23 04:32:04;;;;;;;37.10;24.43;;;10.90;99.90;;;;;;5112129;28;20444;-72
2023/02/23 04:34:29;;;;;;;37.00;21.67;;;10.90;99.90;;;;;;5113573;28;20399;-73
2023/02/23 04:36:55;;;;;;;32.43;22.20;;;10.90;99.90;;;;;;5112400;28;20172;-72
2023/02/23 04:39:20;;;;;;;34.13;22.90;;;10.90;99.90;;;;;;5113450;28;20203;-73
2023/02/23 04:41:49;;;;;;;34.43;20.33;;;10.90;99.90;;;;;;5113130;28;20195;-73
2023/02/23 04:44:17;;;;;;;32.40;21.23;;;10.90;99.90;;;;;;5144949;27;20172;-74
2023/02/23 04:46:43;;;;;;;35.63;22.97;;;10.80;99.90;;;;;;5118010;27;20928;-74
2023/02/23 04:49:08;;;;;;;29.77;20.80;;;10.80;99.90;;;;;;5112415;28;20418;-73
2023/02/23 04:51:35;;;;;;;28.97;20.07;;;10.80;99.90;;;;;;5112644;28;20172;-73
2023/02/23 04:54:01;;;;;;;31.43;21.97;;;10.80;99.90;;;;;;5112630;28;20171;-73
2023/02/23 04:56:27;;;;;;;32.03;22.27;;;10.80;99.90;;;;;;5112647;28;20473;-74
2023/02/23 04:58:53;;;;;;;34.60;22.80;;;10.70;99.90;;;;;;5110697;28;20431;-74
2023/02/23 05:01:20;;;;;;;36.00;22.30;;;10.70;99.90;;;;;;5112739;28;20480;-72
2023/02/23 05:03:46;;;;;;;36.63;21.50;;;10.70;99.90;;;;;;5113464;28;20157;-72
2023/02/23 05:06:12;;;;;;;36.57;24.83;;;10.70;99.90;;;;;;5113445;28;20395;-72
2023/02/23 05:08:38;;;;;;;34.87;23.53;;;10.70;99.90;;;;;;5112292;28;20932;-72
2023/02/23 05:11:05;;;;;;;37.77;21.73;;;10.70;99.90;;;;;;5112851;28;20410;-72
2023/02/23 05:13:31;;;;;;;41.77;23.63;;;10.70;99.90;;;;;;5112943;28;20778;-72
2023/02/23 05:15:56;;;;;;;44.07;26.03;;;10.70;99.90;;;;;;5128347;27;20401;-72
2023/02/23 05:18:24;;;;;;;36.77;23.93;;;10.70;99.90;;;;;;5132633;27;20398;-71
2023/02/23 05:20:50;;;;;;;36.70;22.73;;;10.70;99.90;;;;;;5132677;27;20240;-72
2023/02/23 05:23:15;;;;;;;33.40;24.60;;;10.70;99.90;;;;;;5132885;27;20386;-72
2023/02/23 05:25:41;;;;;;;35.30;22.20;;;10.70;99.90;;;;;;5131494;27;20421;-72
2023/02/23 05:28:08;;;;;;;32.27;23.50;;;10.70;99.90;;;;;;5132512;27;20161;-72
2023/02/23 05:30:33;;;;;;;43.63;23.67;;;10.70;99.90;;;;;;5131861;27;20171;-72
2023/02/23 05:32:59;;;;;;;32.20;23.30;;;10.70;99.90;;;;;;5133310;28;20394;-72
2023/02/23 05:35:25;;;;;;;33.83;21.53;;;10.70;99.90;;;;;;5133079;27;20168;-72
2023/02/23 05:37:50;;;;;;;34.10;20.03;;;10.70;99.90;;;;;;5132493;27;20209;-72
2023/02/23 05:40:16;;;;;;;37.67;22.67;;;10.80;99.90;;;;;;5133125;28;20279;-73
2023/02/23 05:42:42;;;;;;;28.30;22.13;;;10.80;99.90;;;;;;5132629;28;20160;-74
2023/02/23 05:45:07;;;;;;;31.57;21.07;;;10.80;99.90;;;;;;5131686;27;20662;-74
2023/02/23 05:47:37;;;;;;;27.53;20.00;;;10.80;99.90;;;;;;5132321;28;20398;-73
2023/02/23 05:50:04;;;;;;;31.23;20.10;;;10.70;99.90;;;;;;5137587;27;20184;-72
2023/02/23 05:52:30;;;;;;;32.77;20.80;;;10.70;99.90;;;;;;5148247;27;20413;-73
2023/02/23 05:54:56;;;;;;;27.27;21.13;;;10.70;99.90;;;;;;5136528;27;20776;-72
2023/02/23 05:57:22;;;;;;;28.63;19.77;;;10.70;99.90;;;;;;5136234;27;20160;-72
2023/02/23 05:59:47;;;;;;;26.97;20.20;;;10.70;99.90;;;;;;5136793;27;20290;-73
2023/02/23 06:02:13;;;;;;;28.93;20.60;;;10.70;99.90;;;;;;5124246;27;20418;-72
2023/02/23 06:04:38;;;;;;;30.10;20.17;;;10.70;99.90;;;;;;5115837;28;20160;-72
2023/02/23 06:07:04;;;;;;;28.47;21.30;;;10.70;99.90;;;;;;5115829;28;20165;-71
2023/02/23 06:09:29;;;;;;;28.50;20.73;;;10.70;99.90;;;;;;5115824;28;20193;-73
2023/02/23 06:11:55;;;;;;;32.43;22.00;;;10.70;99.90;;;;;;5115563;28;20164;-74
2023/02/23 06:14:20;;;;;;;29.50;19.10;;;10.70;99.90;;;;;;5116321;28;20189;-73
2023/02/23 06:16:47;;;;;;;30.77;20.23;;;10.70;99.90;;;;;;5115474;28;20173;-75
2023/02/23 06:19:13;;;;;;;38.60;22.63;;;10.70;99.90;;;;;;5115275;28;20200;-74
2023/02/23 06:21:39;;;;;;;34.40;21.17;;;10.70;99.90;;;;;;5115344;28;20831;-73
2023/02/23 06:24:05;;;;;;;29.73;19.80;;;10.70;99.90;;;;;;5114143;28;20172;-72
2023/02/23 06:26:32;;;;;;;29.53;21.33;;;10.70;99.90;;;;;;5115219;28;20889;-72
2023/02/23 06:28:58;;;;;;;27.97;21.50;;;10.70;99.90;;;;;;5113890;28;20185;-72
2023/02/23 06:31:23;;;;;;;34.90;19.60;;;10.60;99.90;;;;;;5115349;28;20454;-71
2023/02/23 06:33:49;;;;;;;31.80;21.00;;;10.60;99.90;;;;;;5115241;28;20634;-70
2023/02/23 06:36:15;;;;;;;37.30;21.27;;;10.60;99.90;;;;;;5115439;28;20157;-71
2023/02/23 06:38:41;;;;;;;27.43;20.07;;;10.60;99.90;;;;;;5113947;28;20509;-72
2023/02/23 06:41:08;;;;;;;28.53;19.27;;;10.70;99.90;;;;;;5115125;28;20189;-72
2023/02/23 06:43:34;;;;;;;36.70;21.90;;;10.70;99.90;;;;;;5117843;27;20165;-73
2023/02/23 06:45:59;;;;;;;35.80;23.03;;;10.70;99.90;;;;;;5134838;27;20887;-73
2023/02/23 06:48:25;;;;;;;33.43;21.13;;;10.70;99.90;;;;;;5135316;27;20682;-72
2023/02/23 06:50:51;;;;;;;35.60;20.63;;;10.60;99.90;;;;;;5135515;27;20561;-71
2023/02/23 06:53:17;;;;;;;30.70;19.63;;;10.60;99.90;;;;;;5135573;27;20292;-72
2023/02/23 06:55:42;;;;;;;33.83;21.73;;;10.60;99.90;;;;;;5135548;27;20484;-72
2023/02/23 06:58:08;;;;;;;30.67;20.63;;;10.60;99.90;;;;;;5135300;27;20410;-72
2023/02/23 07:00:34;;;;;;;33.93;20.53;;;10.60;99.90;;;;;;5133125;27;20211;-71
2023/02/23 07:02:59;;;;;;;36.53;21.40;;;10.60;99.90;;;;;;5146948;27;20216;-71
2023/02/23 07:05:25;;;;;;;32.00;19.00;;;10.60;99.90;;;;;;5135437;27;20221;-71
2023/02/23 07:07:51;;;;;;;31.73;21.77;;;10.60;99.90;;;;;;5135008;27;20642;-72
2023/02/23 07:10:17;;;;;;;37.63;20.77;;;10.70;99.90;;;;;;5135190;27;20702;-72
2023/02/23 07:12:42;;;;;;;34.17;19.23;;;10.70;99.90;;;;;;5134988;27;20214;-73
2023/02/23 07:15:09;;;;;;;26.37;18.00;;;10.70;99.90;;;;;;5135226;27;20408;-74
2023/02/23 07:17:35;;;;;;;26.73;19.43;;;10.70;99.90;;;;;;5135265;27;20254;-73
2023/02/23 07:20:00;;;;;;;30.00;20.70;;;10.80;99.90;;;;;;5135247;27;20562;-72
2023/02/23 07:22:29;;;;;;;37.17;21.10;;;10.80;99.90;;;;;;5135276;27;20492;-72
2023/02/23 07:24:57;;;;;;;34.90;20.23;;;10.80;99.90;;;;;;5134960;27;20172;-72
2023/02/23 07:27:23;;;;;;;29.13;17.00;;;10.90;99.90;;;;;;5134644;27;20769;-72
2023/02/23 07:29:49;;;;;;;29.93;20.13;;;10.90;99.90;;;;;;5134698;27;20457;-72
2023/02/23 07:32:15;;;;;;;26.30;17.37;;;11.00;99.90;;;;;;5127875;27;20450;-72
2023/02/23 07:34:40;;;;;;;26.47;18.30;;;11.00;99.90;;;;;;5134062;27;20630;-72
2023/02/23 07:37:05;;;;;;;28.37;18.23;;;11.10;99.90;;;;;;5134744;27;20623;-73
2023/02/23 07:39:31;;;;;;;28.17;20.37;;;11.10;99.90;;;;;;5134451;27;20282;-73
2023/02/23 07:41:57;;;;;;;24.80;18.20;;;11.10;99.90;;;;;;5134567;27;20160;-72
2023/02/23 07:44:22;;;;;;;31.37;19.77;;;11.10;99.90;;;;;;5134592;27;20669;-72
2023/02/23 07:46:49;;;;;;;23.53;17.43;;;11.10;99.90;;;;;;5134626;27;20156;-72
2023/02/23 07:49:14;;;;;;;24.00;18.70;;;11.10;99.90;;;;;;5134290;27;20179;-72
2023/02/23 07:51:40;;;;;;;25.10;18.07;;;11.10;99.90;;;;;;5134553;27;20405;-73
2023/02/23 07:54:06;;;;;;;29.27;18.77;;;11.00;99.90;;;;;;5134542;27;20171;-72
2023/02/23 07:56:32;;;;;;;31.97;22.23;;;11.00;99.90;;;;;;5134184;27;20255;-72
2023/02/23 07:58:58;;;;;;;25.20;18.20;;;11.00;99.90;;;;;;5133408;27;20209;-72
2023/02/23 08:01:23;;;;;;;29.97;18.93;;;11.00;99.90;;;;;;5121736;27;20433;-72
2023/02/23 08:03:49;;;;;;;33.10;20.70;;;11.00;99.90;;;;;;5113404;28;20573;-72
2023/02/23 08:06:16;;;;;;;30.50;20.03;;;11.00;99.90;;;;;;5113535;28;20514;-72
2023/02/23 08:08:42;;;;;;;28.57;19.23;;;11.00;99.90;;;;;;5138455;27;20180;-72
2023/02/23 08:11:08;;;;;;;27.27;17.20;;;11.00;99.90;;;;;;5136366;27;20425;-71
2023/02/23 08:13:34;;;;;;;28.70;19.63;;;10.90;99.90;;;;;;5132512;27;20283;-73
2023/02/23 08:16:00;;;;;;;29.40;18.13;;;11.00;99.90;;;;;;5133995;27;20184;-73
2023/02/23 08:18:26;;;;;;;29.90;19.13;;;10.90;99.90;;;;;;5133692;27;20436;-73
2023/02/23 08:21:00;;;;;;;35.27;20.80;;;10.90;99.90;;;;;;5133746;27;20191;-72
2023/02/23 08:23:29;;;;;;;32.60;19.77;;;10.90;99.90;;;;;;5133848;27;20381;-72
2023/02/23 08:25:54;;;;;;;28.47;19.60;;;11.00;99.90;;;;;;5133674;27;20396;-70
2023/02/23 08:28:20;;;;;;;25.57;17.80;;;10.90;99.90;;;;;;5133548;27;20421;-73
2023/02/23 08:30:46;;;;;;;26.57;17.73;;;10.90;99.90;;;;;;5116625;27;20196;-71
2023/02/23 08:33:11;;;;;;;28.60;18.37;;;10.90;99.90;;;;;;5113064;28;20585;-72
2023/02/23 08:35:37;;;;;;;27.17;18.20;;;11.00;99.90;;;;;;5112925;28;20194;-71
2023/02/23 08:38:02;;;;;;;35.80;19.13;;;10.90;99.90;;;;;;5111530;28;20558;-71
2023/02/23 08:40:28;;;;;;;23.90;16.70;;;11.00;99.90;;;;;;5111472;28;20197;-71
2023/02/23 08:42:54;;;;;;;30.07;17.83;;;11.00;99.90;;;;;;5112868;28;20169;-72
2023/02/23 08:45:20;;;;;;;26.00;17.80;;;11.00;99.90;;;;;;5112717;28;20240;-71
2023/02/23 08:47:45;;;;;;;28.10;17.40;;;11.00;99.90;;;;;;5112611;28;20188;-72
2023/02/23 08:50:12;;;;;;;29.17;16.90;;;11.00;99.90;;;;;;5111423;28;20458;-72
2023/02/23 08:52:38;;;;;;;30.60;20.07;;;11.00;99.90;;;;;;5112344;28;20179;-71
2023/02/23 08:55:04;;;;;;;30.53;20.73;;;11.10;99.90;;;;;;5112599;28;20403;-70
2023/02/23 08:57:35;;;;;;;34.00;19.47;;;11.00;99.90;;;;;;5123686;27;20417;-71
2023/02/23 09:00:01;;;;;;;31.43;19.80;;;11.10;99.90;;;;;;5117991;27;20523;-71
2023/02/23 09:02:27;;;;;;;32.90;20.37;;;11.10;99.90;;;;;;5112432;28;20406;-72
2023/02/23 09:04:52;;;;;;;33.97;21.30;;;11.10;99.90;;;;;;5121844;27;20408;-73
2023/02/23 09:07:19;;;;;;;30.90;20.57;;;11.10;99.90;;;;;;5131247;27;20401;-72
2023/02/23 09:09:45;;;;;;;28.63;19.50;;;11.20;99.90;;;;;;5120641;27;20594;-72
2023/02/23 09:12:10;;;;;;;34.60;19.80;;;11.20;99.90;;;;;;5119578;27;20413;-73
2023/02/23 09:14:36;;;;;;;28.67;19.63;;;11.20;99.90;;;;;;5121758;27;20180;-72
2023/02/23 09:17:01;;;;;;;30.23;19.03;;;11.30;99.90;;;;;;5123240;27;20207;-71
2023/02/23 09:19:27;;;;;;;28.87;18.47;;;11.30;99.90;;;;;;5132128;27;20206;-72
2023/02/23 09:21:53;;;;;;;30.40;18.83;;;11.30;99.90;;;;;;5123759;27;20167;-72
2023/02/23 09:24:20;;;;;;;26.03;17.23;;;11.40;99.90;;;;;;5127252;27;20523;-72
2023/02/23 09:26:46;;;;;;;21.83;16.67;;;11.40;99.90;;;;;;5120359;28;20167;-71
2023/02/23 09:29:11;;;;;;;29.63;18.90;;;11.50;99.90;;;;;;5124498;28;20421;-72
2023/02/23 09:31:37;;;;;;;23.97;17.60;;;11.50;99.90;;;;;;5119587;28;20770;-72
2023/02/23 09:34:03;;;;;;;28.80;18.80;;;11.60;99.90;;;;;;5125102;27;20160;-72
2023/02/23 09:36:30;;;;;;;30.00;18.33;;;11.50;99.90;;;;;;5124112;28;20176;-72
2023/02/23 09:38:57;;;;;;;28.23;17.20;;;11.50;99.90;;;;;;5122864;27;20184;-73
2023/02/23 09:41:25;;;;;;;27.50;17.43;;;11.50;99.90;;;;;;5122959;28;20450;-72
2023/02/23 09:44:08;;;;;;;21.90;15.73;;;11.50;99.90;;;;;;5126153;28;20394;-72
2023/02/23 09:46:37;;;;;;;20.37;17.10;;;11.50;99.90;;;;;;5123098;28;20390;-72
2023/02/23 09:49:04;;;;;;;26.07;15.17;;;11.50;99.90;;;;;;5120108;27;20505;-72
2023/02/23 09:51:36;;;;;;;28.50;16.10;;;11.50;99.90;;;;;;5116356;28;20980;-71
2023/02/23 09:54:03;;;;;;;27.57;15.83;;;11.40;99.90;;;;;;5119088;28;20841;-72
2023/02/23 09:57:02;;;;;;;24.00;17.13;;;11.40;99.90;;;;;;5122703;28;20411;-72
2023/02/23 09:59:29;;;;;;;28.40;17.97;;;11.40;99.90;;;;;;5108096;28;20481;-72
2023/02/23 10:02:07;;;;;;;21.40;14.80;;;11.40;99.90;;;;;;5116697;28;20405;-72
2023/02/23 10:04:53;;;;;;;24.90;17.13;;;11.40;99.90;;;;;;5125484;27;20436;-72
2023/02/23 10:07:42;;;;;;;20.10;15.33;;;11.40;99.90;;;;;;5120619;27;20397;-72
2023/02/23 10:10:27;;;;;;;19.20;14.10;;;11.40;99.90;;;;;;5111680;28;20423;-70
2023/02/23 10:13:08;;;;;;;18.90;14.83;;;11.40;99.90;;;;;;5112101;28;20430;-73
2023/02/23 10:15:49;;;;;;;21.50;14.00;;;11.40;99.90;;;;;;5111834;28;20399;-72
2023/02/23 10:18:18;;;;;;;25.90;16.20;;;11.40;99.90;;;;;;5110359;28;20398;-72
2023/02/23 10:20:53;;;;;;;20.23;13.90;;;11.40;99.90;;;;;;5122071;28;20459;-72
2023/02/23 10:23:26;;;;;;;14.07;11.93;;;11.40;99.90;;;;;;5130321;27;20397;-73
2023/02/23 10:25:58;;;;;;;29.80;14.90;;;11.40;99.90;;;;;;5113147;28;20893;-72
2023/02/23 10:28:24;;;;;;;26.70;16.37;;;11.40;99.90;;;;;;5110012;28;20411;-72
2023/02/23 10:30:53;;;;;;;31.83;20.07;;;11.40;99.90;;;;;;5133402;27;20433;-72
2023/02/23 10:33:41;;;;;;;33.13;19.40;;;11.40;99.90;;;;;;5143866;27;20443;-72
2023/02/23 10:36:32;;;;;;;33.73;20.23;;;11.40;99.90;;;;;;5154901;27;20393;-72
2023/02/23 10:38:58;;;;;;;32.93;19.97;;;11.30;99.90;;;;;;5156216;27;20485;-72
2023/02/23 10:41:24;;;;;;;32.50;19.40;;;11.30;99.90;;;;;;5156481;27;20452;-72
2023/02/23 10:43:49;;;;;;;31.33;20.20;;;11.30;99.90;;;;;;5156449;27;20393;-73
2023/02/23 10:46:21;;;;;;;32.43;20.47;;;11.30;99.90;;;;;;5156535;27;20160;-73
2023/02/23 10:48:49;;;;;;;29.60;18.67;;;11.40;99.90;;;;;;5155964;27;20175;-73
2023/02/23 10:51:26;;;;;;;29.70;18.80;;;11.40;99.90;;;;;;5156213;27;20404;-73
2023/02/23 10:53:52;;;;;;;32.63;20.13;;;11.50;99.90;;;;;;5156078;27;20421;-72
2023/02/23 10:56:19;;;;;;;29.77;18.93;;;11.60;99.90;;;;;;5156218;27;20800;-72
2023/02/23 10:58:50;;;;;;;33.23;20.13;;;11.70;99.90;;;;;;5143716;27;20199;-72
2023/02/23 11:01:37;;;;;;;37.90;18.80;;;11.70;99.90;;;;;;5134093;27;20497;-72
2023/02/23 11:04:27;;;;;;;33.27;17.60;;;11.70;99.90;;;;;;5132879;27;20428;-72
2023/02/23 11:07:15;;;;;;;28.90;17.00;;;11.70;99.90;;;;;;5114519;28;20391;-72
2023/02/23 11:09:41;;;;;;;23.57;16.60;;;11.70;99.90;;;;;;5113285;28;20526;-73
2023/02/23 11:12:23;;;;;;;29.80;17.53;;;11.60;99.90;;;;;;5119321;27;20414;-73
2023/02/23 11:14:53;;;;;;;21.93;14.77;;;11.60;99.90;;;;;;5135195;27;20410;-72
2023/02/23 11:17:30;;;;;;;23.53;16.17;;;11.60;99.90;;;;;;5135081;27;20481;-73
2023/02/23 11:20:20;;;;;;;30.13;19.03;;;11.60;99.90;;;;;;5134812;27;20448;-72
2023/02/23 11:22:46;;;;;;;21.03;14.63;;;11.60;99.90;;;;;;5131444;27;20463;-70
2023/02/23 11:25:19;;;;;;;26.07;17.57;;;11.60;99.90;;;;;;5122323;27;20909;-70
2023/02/23 11:27:50;;;;;;;28.20;17.20;;;11.50;99.90;;;;;;5121163;27;20714;-70
2023/02/23 11:30:20;;;;;;;30.33;16.23;;;11.50;99.90;;;;;;5117019;27;20426;-70
2023/02/23 11:32:51;;;;;;;26.90;17.20;;;11.50;99.90;;;;;;5125646;27;20862;-70
2023/02/23 11:35:20;;;;;;;28.80;17.80;;;11.40;99.90;;;;;;5127182;27;20450;-70
2023/02/23 11:37:46;;;;;;;24.87;14.87;;;11.40;99.90;;;;;;5124836;27;20402;-70
2023/02/23 11:40:27;;;;;;;24.77;16.83;;;11.40;99.90;;;;;;5123428;27;20481;-70
2023/02/23 11:43:08;;;;;;;27.00;16.90;;;11.40;99.90;;;;;;5133456;27;20400;-70
2023/02/23 11:45:48;;;;;;;25.33;15.73;;;11.30;99.90;;;;;;5122669;27;20481;-70
2023/02/23 11:48:25;;;;;;;29.63;17.30;;;11.30;99.90;;;;;;5119134;27;20888;-70
2023/02/23 11:50:52;;;;;;;32.40;18.37;;;11.30;99.90;;;;;;5124788;27;20421;-71
2023/02/23 11:53:27;;;;;;;35.30;16.30;;;11.30;99.90;;;;;;5117976;27;20467;-70
2023/02/23 11:55:55;;;;;;;32.10;16.40;;;11.20;99.90;;;;;;5125106;27;20397;-70
2023/02/23 11:58:37;;;;;;;24.63;15.77;;;11.20;99.90;;;;;;5121667;27;20434;-71
2023/02/23 12:01:12;;;;;;;29.00;15.53;;;11.20;99.90;;;;;;5127278;27;20459;-70
2023/02/23 12:03:48;;;;;;;26.87;15.10;;;11.20;99.90;;;;;;5125613;27;20971;-70
2023/02/23 12:06:30;;;;;;;30.53;18.27;;;11.20;99.90;;;;;;5128569;27;20486;-70
2023/02/23 12:09:22;;;;;;;34.47;19.40;;;11.30;99.90;;;;;;5120768;27;20441;-71
2023/02/23 12:11:58;;;;;;;32.23;16.10;;;11.30;99.90;;;;;;5113991;27;20413;-70
2023/02/23 12:14:38;;;;;;;32.20;18.47;;;11.30;99.90;;;;;;5127178;27;20429;-71
2023/02/23 12:17:14;;;;;;;27.70;16.30;;;11.20;99.90;;;;;;5123736;27;20406;-71
2023/02/23 12:19:47;;;;;;;33.63;16.37;;;11.20;99.90;;;;;;5121023;27;20933;-70
2023/02/23 12:22:22;;;;;;;36.90;15.47;;;11.20;99.90;;;;;;5127778;27;20464;-71
2023/02/23 12:24:47;;;;;;;30.33;17.00;;;11.20;99.90;;;;;;5120621;27;20397;-70
2023/02/23 12:27:44;;;;;;;31.20;16.37;;;11.20;99.90;;;;;;5117163;27;20781;-71
2023/02/23 12:30:39;;;;;;;25.13;14.93;;;11.20;99.90;;;;;;5116512;27;20191;-70
2023/02/23 12:33:18;;;;;;;23.17;14.70;;;11.20;99.90;;;;;;5121750;27;20410;-71
2023/02/23 12:36:08;;;;;;;31.93;15.90;;;11.20;99.90;;;;;;5124303;27;20405;-70
2023/02/23 12:38:48;;;;;;;26.63;15.00;;;11.20;99.90;;;;;;5125494;27;20430;-71
2023/02/23 12:41:37;;;;;;;30.63;15.53;;;11.30;99.90;;;;;;5115599;27;20454;-70
2023/02/23 12:44:29;;;;;;;33.43;16.90;;;11.30;99.90;;;;;;5111742;28;20399;-70
2023/02/23 12:47:02;;;;;;;31.97;17.40;;;11.30;99.90;;;;;;5112846;28;20399;-70
2023/02/23 12:49:46;;;;;;;30.37;17.67;;;11.30;99.90;;;;;;5126671;27;20881;-70
2023/02/23 12:52:17;;;;;;;29.73;16.87;;;11.30;99.90;;;;;;5133422;27;20409;-70
2023/02/23 12:54:45;;;;;;;27.63;16.00;;;11.20;99.90;;;;;;5133408;27;20864;-70
2023/02/23 12:57:33;;;;;;;27.33;15.57;;;11.20;99.90;;;;;;5133050;27;20402;-70
2023/02/23 13:00:19;;;;;;;24.43;15.90;;;11.20;99.90;;;;;;5132955;27;20437;-70
2023/02/23 13:03:01;;;;;;;30.23;16.77;;;11.10;99.90;;;;;;5131956;27;20883;-70
2023/02/23 13:05:33;;;;;;;30.93;16.77;;;11.10;99.90;;;;;;5132065;27;20444;-70
2023/02/23 13:07:58;;;;;;;26.83;14.60;;;11.00;99.90;;;;;;5132959;27;20474;-70
2023/02/23 13:11:00;;;;;;;30.17;16.23;;;11.00;99.90;;;;;;5132860;27;20868;-71
2023/02/23 13:13:44;;;;;;;29.13;15.07;;;11.00;99.90;;;;;;5132908;27;20642;-70
2023/02/23 13:16:39;;;;;;;26.63;15.90;;;10.90;99.90;;;;;;5133079;27;20405;-70
2023/02/23 13:19:23;;;;;;;25.10;14.40;;;10.90;99.90;;;;;;5111127;28;20788;-70
2023/02/23 13:22:21;;;;;;;30.70;14.23;;;10.90;99.90;;;;;;5112511;28;20768;-70
2023/02/23 13:24:48;;;;;;;22.80;13.57;;;10.80;99.90;;;;;;5108205;28;20844;-70
2023/02/23 13:27:21;;;;;;;24.30;14.30;;;10.80;99.90;;;;;;5110866;28;20482;-70
2023/02/23 13:29:51;;;;;;;26.00;14.40;;;10.90;99.90;;;;;;5112364;28;20790;-70
2023/02/23 13:32:20;;;;;;;23.20;14.27;;;10.90;99.90;;;;;;5112346;28;20437;-73
2023/02/23 13:34:53;;;;;;;29.20;12.40;;;11.00;99.90;;;;;;5112324;28;20482;-70
2023/02/23 13:37:27;;;;;;;21.53;13.13;;;11.10;99.90;;;;;;5110773;28;20410;-73
2023/02/23 13:40:13;;;;;;;23.67;12.90;;;11.10;99.90;;;;;;5112096;28;20807;-70
2023/02/23 13:42:45;;;;;;;18.43;10.23;;;11.20;99.90;;;;;;5112279;28;20869;-70
2023/02/23 13:45:20;;;;;;;18.53;9.93;;;11.30;99.90;;;;;;5112219;28;20399;-70
2023/02/23 13:48:17;;;;;;;22.03;12.27;;;11.40;99.90;;;;;;5117045;28;20401;-70
2023/02/23 13:50:56;;;;;;;21.47;10.30;;;11.50;99.90;;;;;;5122274;27;20409;-70
2023/02/23 13:53:41;;;;;;;19.20;11.47;;;11.50;99.90;;;;;;5132414;27;20951;-71
2023/02/23 13:56:14;;;;;;;18.77;9.67;;;11.60;99.90;;;;;;5130003;28;20444;-71
2023/02/23 13:58:47;;;;;;;18.73;11.17;;;11.80;99.90;;;;;;5131908;27;20474;-71
2023/02/23 14:01:36;;;;;;;12.63;9.40;;;11.80;99.90;;;;;;5137984;27;20456;-70
2023/02/23 14:04:11;;;;;;;19.77;10.30;;;12.00;99.90;;;;;;5133131;27;20952;-70
2023/02/23 14:06:39;;;;;;;11.80;9.03;;;12.10;99.90;;;;;;5110647;28;20434;-71
2023/02/23 14:09:11;;;;;;;22.77;12.13;;;12.10;99.90;;;;;;5112020;28;20429;-71